sensor_id;sensor_type;location;lat;lon;timestamp;temperature;humidity
5118;DHT22;2578;51.622;7.046;2023-06-05T00:00:15;13.70;99.90
5118;DHT22;2578;51.622;7.046;2023-06-05T00:02:41;13.60;99.90
5118;DHT22;2578;51.622;7.046;2023-06-05T00:05:07;13.50;99.90
5118;DHT22;2578;51.622;7.046;2023-06-05T00:07:35;13.40;99.90
5118;DHT22;2578;51.622;7.046;2023-06-05T00:10:04;13.40;99.90
5118;DHT22;2578;51.622;7.046;2023-06-05T00:12:29;13.30;99.90
5118;DHT22;2578;51.622;7.046;2023-06-05T00:14:55;13.20;99.90
5118;DHT22;2578;51.622;7.046;2023-06-05T00:17:20;13.20;99.90
5118;DHT22;2578;51.622;7.046;2023-06-05T00:19:46;11.90;99.90
5118;DHT22;2578;51.622;7.046;2023-06-05T00:22:12;13.10;99.90
5118;DHT22;2578;51.622;7.046;2023-06-05T00:24:37;13.20;99.90
5118;DHT22;2578;51.622;7.046;2023-06-05T00:36:48;12.80;99.90
5118;DHT22;2578;51.622;7.046;2023-06-05T00:46:38;12.60;99.90
5118;DHT22;2578;51.622;7.046;2023-06-05T00:49:05;12.60;99.90
5118;DHT22;2578;51.622;7.046;2023-06-05T00:56:23;12.50;99.90
5118;DHT22;2578;51.622;7.046;2023-06-05T01:01:15;12.50;99.90
5118;DHT22;2578;51.622;7.046;2023-06-05T01:03:42;12.40;99.90
5118;DHT22;2578;51.622;7.046;2023-06-05T01:06:10;12.30;99.90
5118;DHT22;2578;51.622;7.046;2023-06-05T01:08:37;12.30;99.90
5118;DHT22;2578;51.622;7.046;2023-06-05T01:11:22;12.20;99.90
5118;DHT22;2578;51.622;7.046;2023-06-05T01:19:02;12.10;99.90
5118;DHT22;2578;51.622;7.046;2023-06-05T01:21:29;12.10;99.90
5118;DHT22;2578;51.622;7.046;2023-06-05T01:24:18;12.00;99.90
5118;DHT22;2578;51.622;7.046;2023-06-05T01:27:15;12.00;99.90
5118;DHT22;2578;51.622;7.046;2023-06-05T01:30:19;12.00;99.90
5118;DHT22;2578;51.622;7.046;2023-06-05T01:32:55;11.90;99.90
5118;DHT22;2578;51.622;7.046;2023-06-05T01:35:23;11.80;99.90
5118;DHT22;2578;51.622;7.046;2023-06-05T01:37:54;11.80;99.90
5118;DHT22;2578;51.622;7.046;2023-06-05T01:40:22;11.80;99.90
5118;DHT22;2578;51.622;7.046;2023-06-05T01:42:49;11.70;99.90
5118;DHT22;2578;51.622;7.046;2023-06-05T01:45:17;11.60;99.90
5118;DHT22;2578;51.622;7.046;2023-06-05T01:50:09;11.50;99.90
5118;DHT22;2578;51.622;7.046;2023-06-05T01:52:38;11.50;99.90
5118;DHT22;2578;51.622;7.046;2023-06-05T01:55:06;11.50;99.90
5118;DHT22;2578;51.622;7.046;2023-06-05T01:57:31;11.50;99.90
5118;DHT22;2578;51.622;7.046;2023-06-05T02:00:00;11.40;99.90
5118;DHT22;2578;51.622;7.046;2023-06-05T02:02:28;11.40;99.90
5118;DHT22;2578;51.622;7.046;2023-06-05T03:06:18;10.70;99.90
5118;DHT22;2578;51.622;7.046;2023-06-05T03:47:53;10.20;99.90
5118;DHT22;2578;51.622;7.046;2023-06-05T04:46:43;11.50;99.90
5118;DHT22;2578;51.622;7.046;2023-06-05T04:49:13;11.50;99.90
5118;DHT22;2578;51.622;7.046;2023-06-05T05:26:00;15.50;82.60
5118;DHT22;2578;51.622;7.046;2023-06-05T08:20:56;21.10;99.90
5118;DHT22;2578;51.622;7.046;2023-06-05T08:23:21;21.20;1.00
5118;DHT22;2578;51.622;7.046;2023-06-05T08:25:47;20.90;99.90
5118;DHT22;2578;51.622;7.046;2023-06-05T08:28:16;20.90;88.60
5118;DHT22;2578;51.622;7.046;2023-06-05T08:30:42;20.90;1.00
5118;DHT22;2578;51.622;7.046;2023-06-05T08:33:09;21.10;1.00
5118;DHT22;2578;51.622;7.046;2023-06-05T08:35:35;21.20;1.00
5118;DHT22;2578;51.622;7.046;2023-06-05T08:38:02;21.50;1.00
5118;DHT22;2578;51.622;7.046;2023-06-05T08:40:28;21.70;1.00
5118;DHT22;2578;51.622;7.046;2023-06-05T08:42:55;22.20;1.00
5118;DHT22;2578;51.622;7.046;2023-06-05T08:45:21;22.80;1.00
5118;DHT22;2578;51.622;7.046;2023-06-05T08:47:50;22.90;1.00
5118;DHT22;2578;51.622;7.046;2023-06-05T08:50:16;23.10;1.00
5118;DHT22;2578;51.622;7.046;2023-06-05T08:52:43;22.90;1.00
5118;DHT22;2578;51.622;7.046;2023-06-05T08:57:41;23.50;1.00
5118;DHT22;2578;51.622;7.046;2023-06-05T09:00:07;23.40;1.00
5118;DHT22;2578;51.622;7.046;2023-06-05T09:02:38;23.30;1.00
5118;DHT22;2578;51.622;7.046;2023-06-05T09:05:04;23.20;99.90
5118;DHT22;2578;51.622;7.046;2023-06-05T09:07:30;23.10;99.90
5118;DHT22;2578;51.622;7.046;2023-06-05T09:09:58;23.10;1.00
5118;DHT22;2578;51.622;7.046;2023-06-05T09:17:17;24.20;1.00
5118;DHT22;2578;51.622;7.046;2023-06-05T09:19:43;24.00;1.00
5118;DHT22;2578;51.622;7.046;2023-06-05T09:22:11;24.40;1.00
5118;DHT22;2578;51.622;7.046;2023-06-05T09:24:38;24.90;1.00
5118;DHT22;2578;51.622;7.046;2023-06-05T09:27:08;25.40;1.00
5118;DHT22;2578;51.622;7.046;2023-06-05T09:29:38;25.30;1.00
5118;DHT22;2578;51.622;7.046;2023-06-05T09:32:09;26.20;1.00
5118;DHT22;2578;51.622;7.046;2023-06-05T09:34:39;26.20;1.00
5118;DHT22;2578;51.622;7.046;2023-06-05T09:37:07;26.40;1.00
5118;DHT22;2578;51.622;7.046;2023-06-05T09:39:35;26.50;1.00
5118;DHT22;2578;51.622;7.046;2023-06-05T09:42:01;26.50;1.00
5118;DHT22;2578;51.622;7.046;2023-06-05T09:44:28;26.30;1.00
5118;DHT22;2578;51.622;7.046;2023-06-05T09:47:11;26.30;1.00
5118;DHT22;2578;51.622;7.046;2023-06-05T09:52:09;26.40;1.00
5118;DHT22;2578;51.622;7.046;2023-06-05T09:54:37;26.30;1.00
5118;DHT22;2578;51.622;7.046;2023-06-05T09:57:04;26.30;1.00
5118;DHT22;2578;51.622;7.046;2023-06-05T09:59:32;26.20;1.00
5118;DHT22;2578;51.622;7.046;2023-06-05T10:02:05;26.40;1.00
5118;DHT22;2578;51.622;7.046;2023-06-05T10:04:37;26.40;1.00
5118;DHT22;2578;51.622;7.046;2023-06-05T10:07:04;26.30;1.00
5118;DHT22;2578;51.622;7.046;2023-06-05T10:09:31;26.10;1.00
5118;DHT22;2578;51.622;7.046;2023-06-05T10:12:02;26.40;1.00
5118;DHT22;2578;51.622;7.046;2023-06-05T10:16:55;25.90;1.00
5118;DHT22;2578;51.622;7.046;2023-06-05T10:19:22;25.70;1.00
5118;DHT22;2578;51.622;7.046;2023-06-05T10:21:50;25.50;1.00
5118;DHT22;2578;51.622;7.046;2023-06-05T10:24:26;25.00;1.00
5118;DHT22;2578;51.622;7.046;2023-06-05T10:38:16;25.40;1.00
5118;DHT22;2578;51.622;7.046;2023-06-05T10:40:53;25.40;1.00
5118;DHT22;2578;51.622;7.046;2023-06-05T10:43:33;25.60;1.00
5118;DHT22;2578;51.622;7.046;2023-06-05T10:46:01;25.60;1.00
5118;DHT22;2578;51.622;7.046;2023-06-05T10:51:41;26.00;1.00
5118;DHT22;2578;51.622;7.046;2023-06-05T10:54:10;26.80;1.00
5118;DHT22;2578;51.622;7.046;2023-06-05T11:07:22;27.30;1.00
5118;DHT22;2578;51.622;7.046;2023-06-05T11:10:07;27.40;1.00
5118;DHT22;2578;51.622;7.046;2023-06-05T11:15:05;27.20;1.00
5118;DHT22;2578;51.622;7.046;2023-06-05T11:17:33;27.20;1.00
5118;DHT22;2578;51.622;7.046;2023-06-05T11:20:00;27.30;1.00
5118;DHT22;2578;51.622;7.046;2023-06-05T11:22:26;27.90;1.00
5118;DHT22;2578;51.622;7.046;2023-06-05T11:27:45;28.40;1.00
5118;DHT22;2578;51.622;7.046;2023-06-05T11:30:16;28.30;1.00
5118;DHT22;2578;51.622;7.046;2023-06-05T11:32:43;28.10;1.00
5118;DHT22;2578;51.622;7.046;2023-06-05T11:37:36;27.50;99.90
5118;DHT22;2578;51.622;7.046;2023-06-05T11:40:03;27.90;1.00
5118;DHT22;2578;51.622;7.046;2023-06-05T11:42:39;28.40;1.00
5118;DHT22;2578;51.622;7.046;2023-06-05T11:45:14;28.90;99.90
5118;DHT22;2578;51.622;7.046;2023-06-05T11:47:40;28.90;1.00
5118;DHT22;2578;51.622;7.046;2023-06-05T11:50:12;28.70;1.00
5118;DHT22;2578;51.622;7.046;2023-06-05T11:52:39;29.20;1.00
5118;DHT22;2578;51.622;7.046;2023-06-05T11:55:15;29.10;99.90
5118;DHT22;2578;51.622;7.046;2023-06-05T11:57:45;29.20;99.90
5118;DHT22;2578;51.622;7.046;2023-06-05T12:00:12;28.80;99.90
5118;DHT22;2578;51.622;7.046;2023-06-05T12:02:42;28.80;1.00
5118;DHT22;2578;51.622;7.046;2023-06-05T12:05:11;29.10;99.90
5118;DHT22;2578;51.622;7.046;2023-06-05T12:07:37;29.20;99.90
5118;DHT22;2578;51.622;7.046;2023-06-05T12:10:06;29.20;99.90
5118;DHT22;2578;51.622;7.046;2023-06-05T12:12:49;29.40;99.90
5118;DHT22;2578;51.622;7.046;2023-06-05T12:15:19;29.80;99.90
5118;DHT22;2578;51.622;7.046;2023-06-05T12:17:54;29.50;99.90
5118;DHT22;2578;51.622;7.046;2023-06-05T12:20:21;29.50;99.90
5118;DHT22;2578;51.622;7.046;2023-06-05T12:22:47;29.70;99.90
5118;DHT22;2578;51.622;7.046;2023-06-05T12:25:18;29.80;99.90
5118;DHT22;2578;51.622;7.046;2023-06-05T12:27:43;29.80;99.90
5118;DHT22;2578;51.622;7.046;2023-06-05T12:30:11;30.10;99.90
5118;DHT22;2578;51.622;7.046;2023-06-05T12:32:37;30.20;99.90
5118;DHT22;2578;51.622;7.046;2023-06-05T12:35:05;29.80;99.90
5118;DHT22;2578;51.622;7.046;2023-06-05T12:37:34;29.70;99.90
5118;DHT22;2578;51.622;7.046;2023-06-05T12:40:03;29.60;99.90
5118;DHT22;2578;51.622;7.046;2023-06-05T12:42:35;29.60;99.90
5118;DHT22;2578;51.622;7.046;2023-06-05T12:45:01;29.60;99.90
5118;DHT22;2578;51.622;7.046;2023-06-05T12:47:28;29.90;99.90
5118;DHT22;2578;51.622;7.046;2023-06-05T12:52:22;30.50;99.90
5118;DHT22;2578;51.622;7.046;2023-06-05T12:54:52;30.40;99.90
5118;DHT22;2578;51.622;7.046;2023-06-05T12:57:17;30.30;99.90
5118;DHT22;2578;51.622;7.046;2023-06-05T12:59:46;30.20;99.90
5118;DHT22;2578;51.622;7.046;2023-06-05T13:02:12;30.60;99.90
5118;DHT22;2578;51.622;7.046;2023-06-05T13:04:39;31.10;99.90
5118;DHT22;2578;51.622;7.046;2023-06-05T13:09:32;30.50;99.90
5118;DHT22;2578;51.622;7.046;2023-06-05T13:11:57;30.20;99.90
5118;DHT22;2578;51.622;7.046;2023-06-05T13:19:17;29.10;99.90
5118;DHT22;2578;51.622;7.046;2023-06-05T13:21:43;29.10;99.90
5118;DHT22;2578;51.622;7.046;2023-06-05T13:24:08;29.40;99.90
5118;DHT22;2578;51.622;7.046;2023-06-05T13:26:34;29.50;99.90
5118;DHT22;2578;51.622;7.046;2023-06-05T13:31:26;30.20;99.90
5118;DHT22;2578;51.622;7.046;2023-06-05T13:33:51;30.60;99.90
5118;DHT22;2578;51.622;7.046;2023-06-05T13:36:17;30.60;99.90
5118;DHT22;2578;51.622;7.046;2023-06-05T13:38:43;28.80;99.90
5118;DHT22;2578;51.622;7.046;2023-06-05T13:41:08;30.40;99.90
5118;DHT22;2578;51.622;7.046;2023-06-05T13:43:34;30.30;99.90
5118;DHT22;2578;51.622;7.046;2023-06-05T13:46:00;30.20;99.90
5118;DHT22;2578;51.622;7.046;2023-06-05T13:48:26;30.10;99.90
5118;DHT22;2578;51.622;7.046;2023-06-05T13:50:52;30.00;99.90
5118;DHT22;2578;51.622;7.046;2023-06-05T13:53:18;30.20;99.90
5118;DHT22;2578;51.622;7.046;2023-06-05T13:55:44;30.10;99.90
5118;DHT22;2578;51.622;7.046;2023-06-05T13:58:09;30.00;99.90
5118;DHT22;2578;51.622;7.046;2023-06-05T14:00:37;29.90;99.90
5118;DHT22;2578;51.622;7.046;2023-06-05T14:03:02;29.70;99.90
5118;DHT22;2578;51.622;7.046;2023-06-05T14:05:28;30.10;99.90
5118;DHT22;2578;51.622;7.046;2023-06-05T14:07:55;30.30;99.90
5118;DHT22;2578;51.622;7.046;2023-06-05T14:10:22;30.20;99.90
5118;DHT22;2578;51.622;7.046;2023-06-05T14:12:48;30.30;99.90
5118;DHT22;2578;51.622;7.046;2023-06-05T14:15:14;30.50;99.90
5118;DHT22;2578;51.622;7.046;2023-06-05T14:17:40;30.20;99.90
5118;DHT22;2578;51.622;7.046;2023-06-05T14:20:06;29.80;99.90
5118;DHT22;2578;51.622;7.046;2023-06-05T14:22:32;29.60;99.90
5118;DHT22;2578;51.622;7.046;2023-06-05T14:24:58;30.00;99.90
5118;DHT22;2578;51.622;7.046;2023-06-05T14:27:23;29.90;99.90
5118;DHT22;2578;51.622;7.046;2023-06-05T14:29:49;29.90;99.90
5118;DHT22;2578;51.622;7.046;2023-06-05T14:32:14;30.20;99.90
5118;DHT22;2578;51.622;7.046;2023-06-05T14:34:40;30.10;99.90
5118;DHT22;2578;51.622;7.046;2023-06-05T14:37:06;30.00;99.90
5118;DHT22;2578;51.622;7.046;2023-06-05T14:41:58;29.90;99.90
5118;DHT22;2578;51.622;7.046;2023-06-05T14:44:23;30.30;99.90
5118;DHT22;2578;51.622;7.046;2023-06-05T14:46:49;30.40;99.90
5118;DHT22;2578;51.622;7.046;2023-06-05T14:49:14;30.50;99.90
5118;DHT22;2578;51.622;7.046;2023-06-05T14:51:40;30.40;99.90
5118;DHT22;2578;51.622;7.046;2023-06-05T14:54:06;30.40;99.90
5118;DHT22;2578;51.622;7.046;2023-06-05T14:56:31;30.30;99.90
5118;DHT22;2578;51.622;7.046;2023-06-05T14:58:57;30.40;99.90
5118;DHT22;2578;51.622;7.046;2023-06-05T15:01:23;30.50;99.90
5118;DHT22;2578;51.622;7.046;2023-06-05T15:03:48;30.30;99.90
5118;DHT22;2578;51.622;7.046;2023-06-05T15:06:14;30.40;99.90
5118;DHT22;2578;51.622;7.046;2023-06-05T15:08:39;30.40;99.90
5118;DHT22;2578;51.622;7.046;2023-06-05T15:11:05;30.30;99.90
5118;DHT22;2578;51.622;7.046;2023-06-05T15:13:31;29.80;99.90
5118;DHT22;2578;51.622;7.046;2023-06-05T15:15:56;29.80;99.90
5118;DHT22;2578;51.622;7.046;2023-06-05T15:18:24;29.80;99.90
5118;DHT22;2578;51.622;7.046;2023-06-05T15:20:50;29.80;99.90
5118;DHT22;2578;51.622;7.046;2023-06-05T15:23:16;29.70;99.90
5118;DHT22;2578;51.622;7.046;2023-06-05T15:28:08;29.30;99.90
5118;DHT22;2578;51.622;7.046;2023-06-05T15:30:33;29.30;99.90
5118;DHT22;2578;51.622;7.046;2023-06-05T15:32:59;29.40;99.90
5118;DHT22;2578;51.622;7.046;2023-06-05T15:35:25;29.40;99.90
5118;DHT22;2578;51.622;7.046;2023-06-05T15:37:52;29.30;99.90
5118;DHT22;2578;51.622;7.046;2023-06-05T15:45:12;28.80;99.90
5118;DHT22;2578;51.622;7.046;2023-06-05T15:47:39;28.60;99.90
5118;DHT22;2578;51.622;7.046;2023-06-05T15:50:05;28.80;99.90
5118;DHT22;2578;51.622;7.046;2023-06-05T15:52:33;29.10;99.90
5118;DHT22;2578;51.622;7.046;2023-06-05T15:54:59;29.20;99.90
5118;DHT22;2578;51.622;7.046;2023-06-05T15:59:51;28.60;99.90
5118;DHT22;2578;51.622;7.046;2023-06-05T16:02:18;28.40;99.90
5118;DHT22;2578;51.622;7.046;2023-06-05T16:04:44;28.40;99.90
5118;DHT22;2578;51.622;7.046;2023-06-05T16:07:09;28.40;99.90
5118;DHT22;2578;51.622;7.046;2023-06-05T16:09:35;28.90;99.90
5118;DHT22;2578;51.622;7.046;2023-06-05T16:12:01;28.70;99.90
5118;DHT22;2578;51.622;7.046;2023-06-05T16:14:27;27.90;99.90
5118;DHT22;2578;51.622;7.046;2023-06-05T16:16:55;28.50;99.90
5118;DHT22;2578;51.622;7.046;2023-06-05T16:19:22;28.60;99.90
5118;DHT22;2578;51.622;7.046;2023-06-05T16:21:47;28.50;99.90
5118;DHT22;2578;51.622;7.046;2023-06-05T16:24:13;28.70;99.90
5118;DHT22;2578;51.622;7.046;2023-06-05T16:26:39;28.60;99.90
5118;DHT22;2578;51.622;7.046;2023-06-05T16:29:05;28.50;99.90
5118;DHT22;2578;51.622;7.046;2023-06-05T16:31:31;28.60;99.90
5118;DHT22;2578;51.622;7.046;2023-06-05T16:33:57;28.40;99.90
5118;DHT22;2578;51.622;7.046;2023-06-05T16:38:48;28.10;99.90
5118;DHT22;2578;51.622;7.046;2023-06-05T16:41:14;28.10;99.90
5118;DHT22;2578;51.622;7.046;2023-06-05T16:43:39;28.20;99.90
5118;DHT22;2578;51.622;7.046;2023-06-05T16:46:05;28.30;99.90
5118;DHT22;2578;51.622;7.046;2023-06-05T16:48:31;28.20;99.90
5118;DHT22;2578;51.622;7.046;2023-06-05T16:50:57;28.10;99.90
5118;DHT22;2578;51.622;7.046;2023-06-05T16:53:23;28.30;99.90
5118;DHT22;2578;51.622;7.046;2023-06-05T16:55:49;28.10;99.90
5118;DHT22;2578;51.622;7.046;2023-06-05T16:58:15;27.90;99.90
5118;DHT22;2578;51.622;7.046;2023-06-05T17:00:41;28.00;99.90
5118;DHT22;2578;51.622;7.046;2023-06-05T17:03:06;29.10;99.90
5118;DHT22;2578;51.622;7.046;2023-06-05T17:05:32;28.30;99.90
5118;DHT22;2578;51.622;7.046;2023-06-05T17:07:58;28.30;99.90
5118;DHT22;2578;51.622;7.046;2023-06-05T17:10:23;28.20;99.90
5118;DHT22;2578;51.622;7.046;2023-06-05T17:12:49;28.10;99.90
5118;DHT22;2578;51.622;7.046;2023-06-05T17:15:16;28.20;99.90
5118;DHT22;2578;51.622;7.046;2023-06-05T17:17:42;28.00;99.90
5118;DHT22;2578;51.622;7.046;2023-06-05T17:20:08;27.50;99.90
5118;DHT22;2578;51.622;7.046;2023-06-05T17:22:34;27.50;99.90
5118;DHT22;2578;51.622;7.046;2023-06-05T17:25:01;27.50;99.90
5118;DHT22;2578;51.622;7.046;2023-06-05T17:27:27;27.50;99.90
5118;DHT22;2578;51.622;7.046;2023-06-05T17:29:52;27.20;99.90
5118;DHT22;2578;51.622;7.046;2023-06-05T17:32:18;27.20;99.90
5118;DHT22;2578;51.622;7.046;2023-06-05T17:34:43;26.50;99.90
5118;DHT22;2578;51.622;7.046;2023-06-05T17:37:09;24.90;99.90
5118;DHT22;2578;51.622;7.046;2023-06-05T17:39:35;25.90;99.90
5118;DHT22;2578;51.622;7.046;2023-06-05T17:42:04;25.90;99.90
5118;DHT22;2578;51.622;7.046;2023-06-05T17:44:31;26.10;99.90
5118;DHT22;2578;51.622;7.046;2023-06-05T17:46:58;26.20;99.90
5118;DHT22;2578;51.622;7.046;2023-06-05T17:49:23;26.40;99.90
5118;DHT22;2578;51.622;7.046;2023-06-05T17:51:49;26.60;99.90
5118;DHT22;2578;51.622;7.046;2023-06-05T17:54:15;26.60;99.90
5118;DHT22;2578;51.622;7.046;2023-06-05T17:56:40;26.50;99.90
5118;DHT22;2578;51.622;7.046;2023-06-05T17:59:06;26.50;99.90
5118;DHT22;2578;51.622;7.046;2023-06-05T18:01:32;26.50;99.90
5118;DHT22;2578;51.622;7.046;2023-06-05T18:03:58;26.00;99.90
5118;DHT22;2578;51.622;7.046;2023-06-05T18:06:25;26.00;99.90
5118;DHT22;2578;51.622;7.046;2023-06-05T18:08:51;26.00;99.90
5118;DHT22;2578;51.622;7.046;2023-06-05T18:11:17;26.00;99.90
5118;DHT22;2578;51.622;7.046;2023-06-05T18:13:42;26.20;99.90
5118;DHT22;2578;51.622;7.046;2023-06-05T18:16:08;26.20;99.90
5118;DHT22;2578;51.622;7.046;2023-06-05T18:18:34;26.20;99.90
5118;DHT22;2578;51.622;7.046;2023-06-05T18:20:59;26.20;99.90
5118;DHT22;2578;51.622;7.046;2023-06-05T18:23:25;25.90;99.90
5118;DHT22;2578;51.622;7.046;2023-06-05T18:25:51;25.60;99.90
5118;DHT22;2578;51.622;7.046;2023-06-05T18:28:17;25.50;99.90
5118;DHT22;2578;51.622;7.046;2023-06-05T18:30:42;25.40;99.90
5118;DHT22;2578;51.622;7.046;2023-06-05T18:33:08;25.30;99.90
5118;DHT22;2578;51.622;7.046;2023-06-05T18:35:37;25.30;99.90
5118;DHT22;2578;51.622;7.046;2023-06-05T18:38:03;25.30;99.90
5118;DHT22;2578;51.622;7.046;2023-06-05T18:40:29;24.10;99.90
5118;DHT22;2578;51.622;7.046;2023-06-05T18:42:54;25.10;99.90
5118;DHT22;2578;51.622;7.046;2023-06-05T18:45:20;24.80;99.90
5118;DHT22;2578;51.622;7.046;2023-06-05T18:47:48;24.60;99.90
5118;DHT22;2578;51.622;7.046;2023-06-05T18:50:14;24.30;99.90
5118;DHT22;2578;51.622;7.046;2023-06-05T18:52:40;24.20;99.90
5118;DHT22;2578;51.622;7.046;2023-06-05T18:55:06;24.10;99.90
5118;DHT22;2578;51.622;7.046;2023-06-05T18:57:32;23.90;99.90
5118;DHT22;2578;51.622;7.046;2023-06-05T18:59:58;23.70;99.90
5118;DHT22;2578;51.622;7.046;2023-06-05T19:02:24;23.50;99.90
5118;DHT22;2578;51.622;7.046;2023-06-05T19:04:49;23.10;99.90
5118;DHT22;2578;51.622;7.046;2023-06-05T19:07:15;23.00;99.90
5118;DHT22;2578;51.622;7.046;2023-06-05T19:12:07;22.70;99.90
5118;DHT22;2578;51.622;7.046;2023-06-05T19:17:00;22.20;99.90
5118;DHT22;2578;51.622;7.046;2023-06-05T19:19:25;22.10;99.90
5118;DHT22;2578;51.622;7.046;2023-06-05T19:21:51;21.90;99.90
5118;DHT22;2578;51.622;7.046;2023-06-05T19:24:16;21.40;99.90
5118;DHT22;2578;51.622;7.046;2023-06-05T19:26:42;21.30;99.90
5118;DHT22;2578;51.622;7.046;2023-06-05T19:29:09;21.20;99.90
5118;DHT22;2578;51.622;7.046;2023-06-05T19:31:36;21.00;99.90
5118;DHT22;2578;51.622;7.046;2023-06-05T19:34:02;20.60;99.90
5118;DHT22;2578;51.622;7.046;2023-06-05T19:36:29;20.50;99.90
5118;DHT22;2578;51.622;7.046;2023-06-05T19:38:54;20.20;99.90
5118;DHT22;2578;51.622;7.046;2023-06-05T19:41:20;20.10;99.90
5118;DHT22;2578;51.622;7.046;2023-06-05T19:43:46;19.90;99.90
5118;DHT22;2578;51.622;7.046;2023-06-05T19:55:57;19.30;99.90
5118;DHT22;2578;51.622;7.046;2023-06-05T19:58:23;19.10;99.90
5118;DHT22;2578;51.622;7.046;2023-06-05T20:03:17;18.90;99.90
5118;DHT22;2578;51.622;7.046;2023-06-05T20:08:08;18.60;99.90
5118;DHT22;2578;51.622;7.046;2023-06-05T20:10:34;18.50;99.90
5118;DHT22;2578;51.622;7.046;2023-06-05T20:13:00;18.30;99.90
5118;DHT22;2578;51.622;7.046;2023-06-05T20:15:26;18.20;99.90
5118;DHT22;2578;51.622;7.046;2023-06-05T20:20:17;17.90;99.90
5118;DHT22;2578;51.622;7.046;2023-06-05T20:22:44;18.00;99.90
5118;DHT22;2578;51.622;7.046;2023-06-05T20:25:10;17.90;99.90
5118;DHT22;2578;51.622;7.046;2023-06-05T20:27:35;18.00;99.90
5118;DHT22;2578;51.622;7.046;2023-06-05T20:30:04;18.00;99.90
5118;DHT22;2578;51.622;7.046;2023-06-05T20:32:30;19.40;99.90
5118;DHT22;2578;51.622;7.046;2023-06-05T20:34:56;18.20;99.90
5118;DHT22;2578;51.622;7.046;2023-06-05T20:37:25;18.10;99.90
5118;DHT22;2578;51.622;7.046;2023-06-05T20:39:56;18.00;99.90
5118;DHT22;2578;51.622;7.046;2023-06-05T20:42:22;17.80;99.90
5118;DHT22;2578;51.622;7.046;2023-06-05T20:44:52;17.70;99.90
5118;DHT22;2578;51.622;7.046;2023-06-05T20:47:25;17.60;99.90
5118;DHT22;2578;51.622;7.046;2023-06-05T20:49:53;17.50;99.90
5118;DHT22;2578;51.622;7.046;2023-06-05T20:52:25;17.40;1.00
5118;DHT22;2578;51.622;7.046;2023-06-05T20:54:51;17.30;99.90
5118;DHT22;2578;51.622;7.046;2023-06-05T20:57:17;17.20;1.00
5118;DHT22;2578;51.622;7.046;2023-06-05T20:59:45;17.00;1.00
5118;DHT22;2578;51.622;7.046;2023-06-05T21:02:11;17.00;1.00
5118;DHT22;2578;51.622;7.046;2023-06-05T21:04:40;16.80;1.00
5118;DHT22;2578;51.622;7.046;2023-06-05T21:07:05;16.80;1.00
5118;DHT22;2578;51.622;7.046;2023-06-05T21:09:31;16.70;1.00
5118;DHT22;2578;51.622;7.046;2023-06-05T21:11:57;16.60;1.00
5118;DHT22;2578;51.622;7.046;2023-06-05T21:14:22;16.60;1.00
5118;DHT22;2578;51.622;7.046;2023-06-05T21:16:48;16.60;1.00
5118;DHT22;2578;51.622;7.046;2023-06-05T21:19:14;16.60;1.00
5118;DHT22;2578;51.622;7.046;2023-06-05T21:21:39;16.60;1.00
5118;DHT22;2578;51.622;7.046;2023-06-05T21:24:05;16.50;1.00
5118;DHT22;2578;51.622;7.046;2023-06-05T21:26:31;16.50;1.00
5118;DHT22;2578;51.622;7.046;2023-06-05T21:28:56;16.40;1.00
5118;DHT22;2578;51.622;7.046;2023-06-05T21:31:22;16.30;1.00
5118;DHT22;2578;51.622;7.046;2023-06-05T21:36:14;16.20;1.00
5118;DHT22;2578;51.622;7.046;2023-06-05T21:38:39;16.10;1.00
5118;DHT22;2578;51.622;7.046;2023-06-05T21:41:05;16.10;1.00
5118;DHT22;2578;51.622;7.046;2023-06-05T21:43:31;16.00;1.00
5118;DHT22;2578;51.622;7.046;2023-06-05T21:48:22;16.00;1.00
5118;DHT22;2578;51.622;7.046;2023-06-05T21:50:50;15.90;1.00
5118;DHT22;2578;51.622;7.046;2023-06-05T21:55:42;15.90;1.00
5118;DHT22;2578;51.622;7.046;2023-06-05T21:58:08;15.90;1.00
5118;DHT22;2578;51.622;7.046;2023-06-05T22:00:34;15.80;1.00
5118;DHT22;2578;51.622;7.046;2023-06-05T22:02:59;15.70;1.00
5118;DHT22;2578;51.622;7.046;2023-06-05T22:05:25;15.70;1.00
5118;DHT22;2578;51.622;7.046;2023-06-05T22:07:55;15.60;1.00
5118;DHT22;2578;51.622;7.046;2023-06-05T22:10:22;15.50;26.50
5118;DHT22;2578;51.622;7.046;2023-06-05T22:12:48;15.50;42.20
5118;DHT22;2578;51.622;7.046;2023-06-05T22:15:14;15.40;45.80
5118;DHT22;2578;51.622;7.046;2023-06-05T22:17:42;15.40;60.00
5118;DHT22;2578;51.622;7.046;2023-06-05T22:20:11;15.30;50.50
5118;DHT22;2578;51.622;7.046;2023-06-05T22:22:37;15.20;57.30
5118;DHT22;2578;51.622;7.046;2023-06-05T22:25:03;15.10;98.30
5118;DHT22;2578;51.622;7.046;2023-06-05T22:29:54;15.00;99.90
5118;DHT22;2578;51.622;7.046;2023-06-05T22:32:20;15.00;99.90
5118;DHT22;2578;51.622;7.046;2023-06-05T22:34:47;14.90;99.90
5118;DHT22;2578;51.622;7.046;2023-06-05T22:37:14;14.90;99.90
5118;DHT22;2578;51.622;7.046;2023-06-05T22:39:40;14.70;99.90
5118;DHT22;2578;51.622;7.046;2023-06-05T22:42:06;14.80;99.90
5118;DHT22;2578;51.622;7.046;2023-06-05T22:44:32;14.80;99.90
5118;DHT22;2578;51.622;7.046;2023-06-05T22:46:58;14.70;99.90
5118;DHT22;2578;51.622;7.046;2023-06-05T22:49:24;14.70;99.90
5118;DHT22;2578;51.622;7.046;2023-06-05T22:51:50;14.70;99.90
5118;DHT22;2578;51.622;7.046;2023-06-05T22:54:20;14.50;99.90
5118;DHT22;2578;51.622;7.046;2023-06-05T22:56:46;14.50;99.90
5118;DHT22;2578;51.622;7.046;2023-06-05T22:59:12;14.50;99.90
5118;DHT22;2578;51.622;7.046;2023-06-05T23:01:37;14.40;99.90
5118;DHT22;2578;51.622;7.046;2023-06-05T23:04:04;12.10;99.90
5118;DHT22;2578;51.622;7.046;2023-06-05T23:06:30;14.10;99.90
5118;DHT22;2578;51.622;7.046;2023-06-05T23:08:57;14.00;99.90
5118;DHT22;2578;51.622;7.046;2023-06-05T23:11:23;14.00;99.90
5118;DHT22;2578;51.622;7.046;2023-06-05T23:13:49;13.90;99.90
5118;DHT22;2578;51.622;7.046;2023-06-05T23:16:15;13.90;99.90
5118;DHT22;2578;51.622;7.046;2023-06-05T23:21:07;13.70;99.90
5118;DHT22;2578;51.622;7.046;2023-06-05T23:25:58;13.40;99.90
5118;DHT22;2578;51.622;7.046;2023-06-05T23:28:24;13.20;99.90
5118;DHT22;2578;51.622;7.046;2023-06-05T23:30:50;13.20;99.90
5118;DHT22;2578;51.622;7.046;2023-06-05T23:33:15;13.00;99.90
5118;DHT22;2578;51.622;7.046;2023-06-05T23:35:41;13.00;99.90
5118;DHT22;2578;51.622;7.046;2023-06-05T23:38:07;12.90;99.90
5118;DHT22;2578;51.622;7.046;2023-06-05T23:40:33;12.90;99.90
5118;DHT22;2578;51.622;7.046;2023-06-05T23:42:58;12.90;99.90
5118;DHT22;2578;51.622;7.046;2023-06-05T23:45:29;13.10;1.00
5118;DHT22;2578;51.622;7.046;2023-06-05T23:50:21;13.10;1.00
